Terminal Aerodrome Forecast
Issued by NWS Brownsville, TX

Home | Current Version | Previous Version | Text Only | Print | Product List | Glossary On
Versions: 1 2 3 4 5 6 7 8 9 10 11 12 13 14 15 16 17 18 19 20 21 22
609
FTUS44 KBRO 201130
TAFHRL
TAF
KHRL 201130Z 2012/2112 15006KT 3SM BR SCT005 OVC018
      TEMPO 2012/2014 3/4SM BR BKN005
     FM202000 17010KT P6SM BKN020
     FM210000 15007KT P6SM SCT015 BKN035
     FM210500 19004KT 4SM BR BKN010
      TEMPO 2107/2111 1/2SM FG VV002=

USA.gov is the U.S. government's official web portal to all federal, state and local government web resources and services.